sensor_id;sensor_type;location;lat;lon;timestamp;pressure;altitude;pressure_sealevel;temperature;humidity
73453;BME280;61687;56.232;43.854;2023-05-23T00:01:01;101499.97;;;19.47;38.26
73453;BME280;61687;56.232;43.854;2023-05-23T00:03:27;101488.47;;;19.44;38.24
73453;BME280;61687;56.232;43.854;2023-05-23T00:05:55;101492.03;;;19.41;38.62
73453;BME280;61687;56.232;43.854;2023-05-23T00:08:21;101495.59;;;19.38;38.44
73453;BME280;61687;56.232;43.854;2023-05-23T00:10:48;101495.22;;;19.36;38.62
73453;BME280;61687;56.232;43.854;2023-05-23T00:13:14;101490.47;;;19.33;38.44
73453;BME280;61687;56.232;43.854;2023-05-23T00:15:41;101493.63;;;19.35;38.54
73453;BME280;61687;56.232;43.854;2023-05-23T00:18:09;101491.66;;;19.36;38.15
73453;BME280;61687;56.232;43.854;2023-05-23T00:20:40;101490.47;;;19.37;38.19
73453;BME280;61687;56.232;43.854;2023-05-23T00:23:11;101496.41;;;19.39;38.92
73453;BME280;61687;56.232;43.854;2023-05-23T00:25:44;101488.06;;;19.35;38.96
73453;BME280;61687;56.232;43.854;2023-05-23T00:28:13;101492.84;;;19.31;38.53
73453;BME280;61687;56.232;43.854;2023-05-23T00:30:40;101492.84;;;19.31;38.68
73453;BME280;61687;56.232;43.854;2023-05-23T00:33:06;101481.34;;;19.29;38.65
73453;BME280;61687;56.232;43.854;2023-05-23T00:35:32;101490.88;;;19.28;39.02
73453;BME280;61687;56.232;43.854;2023-05-23T00:37:58;101489.28;;;19.27;39.06
73453;BME280;61687;56.232;43.854;2023-05-23T00:40:24;101483.34;;;19.25;38.93
73453;BME280;61687;56.232;43.854;2023-05-23T00:42:50;101502.41;;;19.23;38.76
73453;BME280;61687;56.232;43.854;2023-05-23T00:45:16;101486.91;;;19.18;38.99
73453;BME280;61687;56.232;43.854;2023-05-23T00:47:43;101495.63;;;19.16;38.97
73453;BME280;61687;56.232;43.854;2023-05-23T00:50:12;101486.91;;;19.14;38.83
73453;BME280;61687;56.232;43.854;2023-05-23T00:52:39;101491.25;;;19.15;38.73
73453;BME280;61687;56.232;43.854;2023-05-23T00:55:06;101482.16;;;19.15;38.91
73453;BME280;61687;56.232;43.854;2023-05-23T00:57:36;101488.09;;;19.17;38.75
73453;BME280;61687;56.232;43.854;2023-05-23T01:00:11;101492.47;;;19.14;39.31
73453;BME280;61687;56.232;43.854;2023-05-23T01:02:43;101491.69;;;19.14;38.97
73453;BME280;61687;56.232;43.854;2023-05-23T01:05:13;101483.34;;;19.14;38.84
73453;BME280;61687;56.232;43.854;2023-05-23T01:07:46;101483.75;;;19.16;39.03
73453;BME280;61687;56.232;43.854;2023-05-23T01:10:13;101488.50;;;19.15;39.23
73453;BME280;61687;56.232;43.854;2023-05-23T01:16:04;101490.47;;;19.22;38.86
73453;BME280;61687;56.232;43.854;2023-05-23T01:18:38;101486.50;;;19.20;39.01
73453;BME280;61687;56.232;43.854;2023-05-23T01:21:18;101483.72;;;19.23;38.96
73453;BME280;61687;56.232;43.854;2023-05-23T01:24:01;101482.91;;;19.26;38.94
73453;BME280;61687;56.232;43.854;2023-05-23T01:26:58;101481.75;;;19.24;39.46
73453;BME280;61687;56.232;43.854;2023-05-23T01:29:30;101477.78;;;19.25;39.61
73453;BME280;61687;56.232;43.854;2023-05-23T01:31:57;101477.38;;;19.23;39.13
73453;BME280;61687;56.232;43.854;2023-05-23T01:34:25;101488.09;;;19.24;39.32
73453;BME280;61687;56.232;43.854;2023-05-23T01:36:54;101481.34;;;19.25;39.53
73453;BME280;61687;56.232;43.854;2023-05-23T01:39:22;101485.72;;;19.23;40.21
73453;BME280;61687;56.232;43.854;2023-05-23T01:41:49;101487.69;;;19.26;39.58
73453;BME280;61687;56.232;43.854;2023-05-23T01:44:16;101482.53;;;19.24;39.74
73453;BME280;61687;56.232;43.854;2023-05-23T01:46:43;101484.13;;;19.25;39.38
73453;BME280;61687;56.232;43.854;2023-05-23T01:49:11;101483.34;;;19.25;39.54
73453;BME280;61687;56.232;43.854;2023-05-23T01:51:38;101480.16;;;19.23;39.90
73453;BME280;61687;56.232;43.854;2023-05-23T01:54:06;101482.16;;;19.26;40.04
73453;BME280;61687;56.232;43.854;2023-05-23T01:56:33;101474.97;;;19.28;40.05
73453;BME280;61687;56.232;43.854;2023-05-23T01:59:01;101479.34;;;19.26;41.01
73453;BME280;61687;56.232;43.854;2023-05-23T02:01:27;101481.75;;;19.24;39.93
73453;BME280;61687;56.232;43.854;2023-05-23T02:03:53;101479.34;;;19.26;39.92
73453;BME280;61687;56.232;43.854;2023-05-23T02:06:20;101484.91;;;19.29;40.47
73453;BME280;61687;56.232;43.854;2023-05-23T02:08:46;101485.31;;;19.32;40.67
73453;BME280;61687;56.232;43.854;2023-05-23T02:11:12;101480.16;;;19.34;40.53
73453;BME280;61687;56.232;43.854;2023-05-23T02:13:39;101487.69;;;19.37;40.85
73453;BME280;61687;56.232;43.854;2023-05-23T02:16:06;101490.44;;;19.40;40.45
73453;BME280;61687;56.232;43.854;2023-05-23T02:18:34;101493.59;;;19.46;40.29
73453;BME280;61687;56.232;43.854;2023-05-23T02:21:06;101501.53;;;19.55;40.06
73453;BME280;61687;56.232;43.854;2023-05-23T02:23:32;101492.78;;;19.60;39.87
73453;BME280;61687;56.232;43.854;2023-05-23T02:25:58;101494.38;;;19.65;39.50
73453;BME280;61687;56.232;43.854;2023-05-23T02:28:24;101489.56;;;19.69;39.35
73453;BME280;61687;56.232;43.854;2023-05-23T02:30:50;101498.31;;;19.74;39.50
73453;BME280;61687;56.232;43.854;2023-05-23T02:33:16;101506.22;;;19.80;39.45
73453;BME280;61687;56.232;43.854;2023-05-23T02:35:42;101499.47;;;19.84;39.31
73453;BME280;61687;56.232;43.854;2023-05-23T02:38:09;101509.41;;;19.89;38.89
73453;BME280;61687;56.232;43.854;2023-05-23T02:40:35;101503.06;;;19.92;39.23
73453;BME280;61687;56.232;43.854;2023-05-23T02:43:02;101512.56;;;19.95;39.17
73453;BME280;61687;56.232;43.854;2023-05-23T02:45:29;101514.97;;;19.96;39.40
73453;BME280;61687;56.232;43.854;2023-05-23T02:47:55;101512.56;;;19.98;38.96
73453;BME280;61687;56.232;43.854;2023-05-23T02:50:21;101508.56;;;19.99;38.84
73453;BME280;61687;56.232;43.854;2023-05-23T02:52:47;101516.50;;;20.08;39.38
73453;BME280;61687;56.232;43.854;2023-05-23T02:55:13;101509.34;;;20.11;39.65
73453;BME280;61687;56.232;43.854;2023-05-23T02:57:45;101516.50;;;20.12;39.88
73453;BME280;61687;56.232;43.854;2023-05-23T03:00:12;101512.50;;;20.16;40.21
73453;BME280;61687;56.232;43.854;2023-05-23T03:02:40;101517.25;;;20.16;39.88
73453;BME280;61687;56.232;43.854;2023-05-23T03:05:06;101510.50;;;20.17;39.78
73453;BME280;61687;56.232;43.854;2023-05-23T03:07:32;101514.88;;;20.18;39.86
73453;BME280;61687;56.232;43.854;2023-05-23T03:09:59;101510.50;;;20.21;40.02
73453;BME280;61687;56.232;43.854;2023-05-23T03:12:27;101515.25;;;20.20;39.85
73453;BME280;61687;56.232;43.854;2023-05-23T03:14:54;101517.66;;;20.18;40.52
73453;BME280;61687;56.232;43.854;2023-05-23T03:17:20;101514.88;;;20.18;40.13
73453;BME280;61687;56.232;43.854;2023-05-23T03:19:47;101513.28;;;20.21;40.54
73453;BME280;61687;56.232;43.854;2023-05-23T03:22:12;101510.88;;;20.19;40.82
73453;BME280;61687;56.232;43.854;2023-05-23T03:24:38;101511.66;;;20.23;40.07
73453;BME280;61687;56.232;43.854;2023-05-23T03:27:04;101509.25;;;20.25;39.84
73453;BME280;61687;56.232;43.854;2023-05-23T03:29:30;101507.25;;;20.29;40.32
73453;BME280;61687;56.232;43.854;2023-05-23T03:31:57;101508.41;;;20.36;40.34
73453;BME280;61687;56.232;43.854;2023-05-23T03:34:23;101503.22;;;20.41;40.42
73453;BME280;61687;56.232;43.854;2023-05-23T03:36:51;101505.56;;;20.43;40.38
73453;BME280;61687;56.232;43.854;2023-05-23T03:39:17;101505.97;;;20.45;40.45
73453;BME280;61687;56.232;43.854;2023-05-23T03:41:44;101505.16;;;20.48;41.23
73453;BME280;61687;56.232;43.854;2023-05-23T03:44:10;101500.38;;;20.52;41.17
73453;BME280;61687;56.232;43.854;2023-05-23T03:46:36;101499.56;;;20.52;41.73
73453;BME280;61687;56.232;43.854;2023-05-23T03:49:02;101503.53;;;20.54;41.86
73453;BME280;61687;56.232;43.854;2023-05-23T03:51:28;101503.91;;;20.56;41.29
73453;BME280;61687;56.232;43.854;2023-05-23T03:53:54;101499.53;;;20.59;41.31
73453;BME280;61687;56.232;43.854;2023-05-23T03:56:20;101498.28;;;20.64;41.50
73453;BME280;61687;56.232;43.854;2023-05-23T03:58:47;101498.63;;;20.73;40.71
73453;BME280;61687;56.232;43.854;2023-05-23T04:01:14;101503.34;;;20.83;41.13
73453;BME280;61687;56.232;43.854;2023-05-23T04:03:40;101505.28;;;20.94;40.86
73453;BME280;61687;56.232;43.854;2023-05-23T04:06:07;101503.63;;;21.00;40.49
73453;BME280;61687;56.232;43.854;2023-05-23T04:08:36;101499.16;;;21.10;39.81
73453;BME280;61687;56.232;43.854;2023-05-23T04:11:01;101506.97;;;21.26;40.20
73453;BME280;61687;56.232;43.854;2023-05-23T04:13:31;101505.25;;;21.39;39.23
73453;BME280;61687;56.232;43.854;2023-05-23T04:16:01;101502.00;;;21.44;39.09
73453;BME280;61687;56.232;43.854;2023-05-23T04:18:31;101498.81;;;21.46;39.16
73453;BME280;61687;56.232;43.854;2023-05-23T04:21:05;101501.16;;;21.51;39.44
73453;BME280;61687;56.232;43.854;2023-05-23T04:23:34;101493.94;;;21.54;39.20
73453;BME280;61687;56.232;43.854;2023-05-23T04:26:00;101498.75;;;21.53;39.72
73453;BME280;61687;56.232;43.854;2023-05-23T04:28:33;101496.28;;;21.59;39.93
73453;BME280;61687;56.232;43.854;2023-05-23T04:31:00;101492.28;;;21.60;39.99
73453;BME280;61687;56.232;43.854;2023-05-23T04:33:31;101500.59;;;21.67;39.22
73453;BME280;61687;56.232;43.854;2023-05-23T04:35:59;101500.09;;;21.76;38.84
73453;BME280;61687;56.232;43.854;2023-05-23T04:38:25;101499.25;;;21.83;39.65
73453;BME280;61687;56.232;43.854;2023-05-23T04:40:53;101507.16;;;21.88;40.13
73453;BME280;61687;56.232;43.854;2023-05-23T04:43:45;101501.09;;;21.93;40.00
73453;BME280;61687;56.232;43.854;2023-05-23T04:46:19;101497.91;;;21.95;40.16
73453;BME280;61687;56.232;43.854;2023-05-23T04:49:03;101499.94;;;21.91;39.86
73453;BME280;61687;56.232;43.854;2023-05-23T04:51:29;101494.81;;;21.85;39.59
73453;BME280;61687;56.232;43.854;2023-05-23T04:54:02;101497.69;;;21.78;40.39
73453;BME280;61687;56.232;43.854;2023-05-23T04:56:28;101495.75;;;21.75;40.74
73453;BME280;61687;56.232;43.854;2023-05-23T04:58:54;101495.72;;;21.79;39.35
73453;BME280;61687;56.232;43.854;2023-05-23T05:01:21;101499.97;;;21.87;39.48
73453;BME280;61687;56.232;43.854;2023-05-23T05:03:51;101498.28;;;21.97;39.24
73453;BME280;61687;56.232;43.854;2023-05-23T05:06:17;101485.00;;;22.05;38.14
73453;BME280;61687;56.232;43.854;2023-05-23T05:08:45;101495.53;;;22.24;38.43
73453;BME280;61687;56.232;43.854;2023-05-23T05:11:12;101494.91;;;22.40;38.06
73453;BME280;61687;56.232;43.854;2023-05-23T05:13:38;101494.72;;;22.55;38.13
73453;BME280;61687;56.232;43.854;2023-05-23T05:16:04;101492.16;;;22.64;37.72
73453;BME280;61687;56.232;43.854;2023-05-23T05:18:31;101494.38;;;22.77;37.64
73453;BME280;61687;56.232;43.854;2023-05-23T05:20:57;101486.31;;;22.82;38.18
73453;BME280;61687;56.232;43.854;2023-05-23T05:23:24;101491.41;;;22.87;37.91
73453;BME280;61687;56.232;43.854;2023-05-23T05:25:53;101485.75;;;22.91;38.23
73453;BME280;61687;56.232;43.854;2023-05-23T05:28:21;101486.41;;;22.99;38.45
73453;BME280;61687;56.232;43.854;2023-05-23T05:30:49;101489.97;;;23.03;38.60
73453;BME280;61687;56.232;43.854;2023-05-23T05:33:21;101485.94;;;23.04;38.26
73453;BME280;61687;56.232;43.854;2023-05-23T05:35:59;101491.47;;;23.08;38.69
73453;BME280;61687;56.232;43.854;2023-05-23T05:38:26;101489.34;;;23.15;37.61
73453;BME280;61687;56.232;43.854;2023-05-23T05:40:52;101483.59;;;23.23;37.65
73453;BME280;61687;56.232;43.854;2023-05-23T05:43:18;101483.94;;;23.28;37.07
73453;BME280;61687;56.232;43.854;2023-05-23T05:45:44;101492.06;;;23.43;36.54
73453;BME280;61687;56.232;43.854;2023-05-23T05:48:11;101473.06;;;23.54;36.26
73453;BME280;61687;56.232;43.854;2023-05-23T05:50:38;101478.81;;;23.67;36.80
73453;BME280;61687;56.232;43.854;2023-05-23T05:53:05;101484.69;;;23.73;36.98
73453;BME280;61687;56.232;43.854;2023-05-23T05:55:33;101492.84;;;23.84;37.49
73453;BME280;61687;56.232;43.854;2023-05-23T05:57:59;101485.97;;;23.89;37.96
73453;BME280;61687;56.232;43.854;2023-05-23T06:00:28;101482.75;;;23.90;37.80
73453;BME280;61687;56.232;43.854;2023-05-23T06:02:56;101477.94;;;23.91;35.34
73453;BME280;61687;56.232;43.854;2023-05-23T06:05:40;101475.63;;;24.06;35.52
73453;BME280;61687;56.232;43.854;2023-05-23T06:08:06;101480.50;;;24.22;35.56
73453;BME280;61687;56.232;43.854;2023-05-23T06:10:33;101484.81;;;24.43;36.18
73453;BME280;61687;56.232;43.854;2023-05-23T06:12:59;101481.31;;;24.72;35.79
73453;BME280;61687;56.232;43.854;2023-05-23T06:15:25;101479.06;;;25.00;34.73
73453;BME280;61687;56.232;43.854;2023-05-23T06:17:51;101485.09;;;25.15;34.79
73453;BME280;61687;56.232;43.854;2023-05-23T06:20:17;101480.69;;;25.31;34.46
73453;BME280;61687;56.232;43.854;2023-05-23T06:22:45;101476.69;;;25.44;33.86
73453;BME280;61687;56.232;43.854;2023-05-23T06:25:12;101476.31;;;25.59;34.05
73453;BME280;61687;56.232;43.854;2023-05-23T06:27:38;101472.41;;;25.69;34.19
73453;BME280;61687;56.232;43.854;2023-05-23T06:30:05;101468.25;;;25.74;34.14
73453;BME280;61687;56.232;43.854;2023-05-23T06:32:32;101466.47;;;25.80;34.73
73453;BME280;61687;56.232;43.854;2023-05-23T06:34:58;101461.66;;;25.81;34.38
73453;BME280;61687;56.232;43.854;2023-05-23T06:37:25;101460.09;;;25.80;33.93
73453;BME280;61687;56.232;43.854;2023-05-23T06:39:51;101472.19;;;25.77;33.85
73453;BME280;61687;56.232;43.854;2023-05-23T06:42:18;101457.59;;;25.69;35.09
73453;BME280;61687;56.232;43.854;2023-05-23T06:44:55;101464.91;;;25.79;35.91
73453;BME280;61687;56.232;43.854;2023-05-23T06:47:21;101453.91;;;25.85;35.70
73453;BME280;61687;56.232;43.854;2023-05-23T06:49:47;101458.63;;;25.88;34.66
73453;BME280;61687;56.232;43.854;2023-05-23T06:52:14;101458.06;;;25.93;35.22
73453;BME280;61687;56.232;43.854;2023-05-23T06:54:41;101453.25;;;25.94;34.80
73453;BME280;61687;56.232;43.854;2023-05-23T06:57:07;101458.19;;;25.90;34.50
73453;BME280;61687;56.232;43.854;2023-05-23T06:59:33;101452.56;;;25.90;34.91
73453;BME280;61687;56.232;43.854;2023-05-23T07:01:59;101451.69;;;25.93;34.11
73453;BME280;61687;56.232;43.854;2023-05-23T07:04:25;101445.16;;;25.96;34.77
73453;BME280;61687;56.232;43.854;2023-05-23T07:06:52;101460.22;;;26.02;34.90
73453;BME280;61687;56.232;43.854;2023-05-23T07:09:19;101454.03;;;26.07;35.95
73453;BME280;61687;56.232;43.854;2023-05-23T07:11:45;101459.31;;;26.05;36.39
73453;BME280;61687;56.232;43.854;2023-05-23T07:14:12;101461.44;;;26.14;35.94
73453;BME280;61687;56.232;43.854;2023-05-23T07:16:40;101458.00;;;26.23;34.32
73453;BME280;61687;56.232;43.854;2023-05-23T07:19:07;101460.94;;;26.32;33.29
73453;BME280;61687;56.232;43.854;2023-05-23T07:21:40;101454.97;;;26.43;32.90
73453;BME280;61687;56.232;43.854;2023-05-23T07:24:06;101452.38;;;26.49;32.11
73453;BME280;61687;56.232;43.854;2023-05-23T07:26:33;101449.34;;;26.56;31.47
73453;BME280;61687;56.232;43.854;2023-05-23T07:28:59;101454.38;;;26.61;32.86
73453;BME280;61687;56.232;43.854;2023-05-23T07:31:25;101445.38;;;26.66;31.99
73453;BME280;61687;56.232;43.854;2023-05-23T07:33:55;101449.72;;;26.80;32.25
73453;BME280;61687;56.232;43.854;2023-05-23T07:36:26;101457.69;;;26.95;32.86
73453;BME280;61687;56.232;43.854;2023-05-23T07:38:54;101456.19;;;27.03;32.83
73453;BME280;61687;56.232;43.854;2023-05-23T07:41:21;101450.47;;;27.07;31.92
73453;BME280;61687;56.232;43.854;2023-05-23T07:43:47;101446.50;;;27.17;31.82
73453;BME280;61687;56.232;43.854;2023-05-23T07:46:13;101455.44;;;27.25;32.02
73453;BME280;61687;56.232;43.854;2023-05-23T07:48:39;101453.63;;;27.31;31.60
73453;BME280;61687;56.232;43.854;2023-05-23T07:51:05;101446.81;;;27.41;32.42
73453;BME280;61687;56.232;43.854;2023-05-23T07:53:31;101442.94;;;27.48;31.29
73453;BME280;61687;56.232;43.854;2023-05-23T07:55:57;101435.97;;;27.53;31.00
73453;BME280;61687;56.232;43.854;2023-05-23T07:58:27;101443.53;;;27.65;30.27
73453;BME280;61687;56.232;43.854;2023-05-23T08:00:53;101448.94;;;27.73;29.96
73453;BME280;61687;56.232;43.854;2023-05-23T08:03:39;101442.72;;;27.87;31.02
73453;BME280;61687;56.232;43.854;2023-05-23T08:06:11;101436.50;;;27.92;31.03
73453;BME280;61687;56.232;43.854;2023-05-23T08:08:37;101425.06;;;27.87;28.85
73453;BME280;61687;56.232;43.854;2023-05-23T08:11:04;101436.13;;;27.81;28.87
73453;BME280;61687;56.232;43.854;2023-05-23T08:13:38;101434.69;;;27.76;29.85
73453;BME280;61687;56.232;43.854;2023-05-23T08:16:23;101424.53;;;27.79;28.82
73453;BME280;61687;56.232;43.854;2023-05-23T08:18:49;101421.72;;;27.79;27.75
73453;BME280;61687;56.232;43.854;2023-05-23T08:21:15;101409.41;;;27.85;28.64
73453;BME280;61687;56.232;43.854;2023-05-23T08:23:41;101407.72;;;27.97;29.33
73453;BME280;61687;56.232;43.854;2023-05-23T08:26:07;101408.81;;;28.00;27.53
73453;BME280;61687;56.232;43.854;2023-05-23T08:28:33;101409.28;;;27.98;26.77
73453;BME280;61687;56.232;43.854;2023-05-23T08:31:02;101406.00;;;28.00;25.84
73453;BME280;61687;56.232;43.854;2023-05-23T08:33:29;101409.94;;;28.03;26.31
73453;BME280;61687;56.232;43.854;2023-05-23T08:35:57;101401.19;;;28.10;28.40
73453;BME280;61687;56.232;43.854;2023-05-23T08:38:24;101405.00;;;28.16;27.70
73453;BME280;61687;56.232;43.854;2023-05-23T08:41:19;101400.31;;;28.22;26.26
73453;BME280;61687;56.232;43.854;2023-05-23T08:43:48;101396.75;;;28.31;26.79
73453;BME280;61687;56.232;43.854;2023-05-23T08:46:22;101394.69;;;28.32;27.51
73453;BME280;61687;56.232;43.854;2023-05-23T08:48:53;101394.84;;;28.28;26.28
73453;BME280;61687;56.232;43.854;2023-05-23T08:51:21;101390.00;;;28.28;26.65
73453;BME280;61687;56.232;43.854;2023-05-23T08:53:48;101388.91;;;28.26;26.41
73453;BME280;61687;56.232;43.854;2023-05-23T08:56:15;101386.22;;;28.32;25.03
73453;BME280;61687;56.232;43.854;2023-05-23T08:58:45;101381.25;;;28.36;25.73
73453;BME280;61687;56.232;43.854;2023-05-23T09:01:13;101385.31;;;28.35;24.46
73453;BME280;61687;56.232;43.854;2023-05-23T09:03:43;101378.56;;;28.32;24.50
73453;BME280;61687;56.232;43.854;2023-05-23T09:06:35;101387.78;;;28.23;24.21
73453;BME280;61687;56.232;43.854;2023-05-23T09:09:02;101381.84;;;28.21;25.16
73453;BME280;61687;56.232;43.854;2023-05-23T09:11:29;101383.84;;;28.21;22.74
73453;BME280;61687;56.232;43.854;2023-05-23T09:13:56;101386.03;;;28.17;23.28
73453;BME280;61687;56.232;43.854;2023-05-23T09:16:23;101374.00;;;28.16;24.33
73453;BME280;61687;56.232;43.854;2023-05-23T09:18:57;101383.53;;;28.19;23.61
73453;BME280;61687;56.232;43.854;2023-05-23T09:21:24;101379.34;;;28.23;24.03
73453;BME280;61687;56.232;43.854;2023-05-23T09:24:00;101375.91;;;28.28;23.62
73453;BME280;61687;56.232;43.854;2023-05-23T09:26:27;101367.75;;;28.31;23.19
73453;BME280;61687;56.232;43.854;2023-05-23T09:28:57;101363.84;;;28.28;22.17
73453;BME280;61687;56.232;43.854;2023-05-23T09:31:27;101367.75;;;28.31;22.82
73453;BME280;61687;56.232;43.854;2023-05-23T09:33:57;101353.53;;;28.34;23.10
73453;BME280;61687;56.232;43.854;2023-05-23T09:36:27;101353.84;;;28.46;22.65
73453;BME280;61687;56.232;43.854;2023-05-23T09:38:55;101353.84;;;28.55;22.86
73453;BME280;61687;56.232;43.854;2023-05-23T09:41:22;101358.25;;;28.65;22.99
73453;BME280;61687;56.232;43.854;2023-05-23T09:43:51;101352.44;;;28.50;22.02
73453;BME280;61687;56.232;43.854;2023-05-23T09:46:19;101360.91;;;28.41;23.11
73453;BME280;61687;56.232;43.854;2023-05-23T09:48:46;101359.78;;;28.29;22.41
73453;BME280;61687;56.232;43.854;2023-05-23T09:51:12;101352.72;;;28.24;23.02
73453;BME280;61687;56.232;43.854;2023-05-23T09:53:39;101347.88;;;28.34;22.92
73453;BME280;61687;56.232;43.854;2023-05-23T09:56:06;101344.00;;;28.60;24.25
73453;BME280;61687;56.232;43.854;2023-05-23T09:58:37;101346.50;;;28.95;24.13
73453;BME280;61687;56.232;43.854;2023-05-23T10:01:08;101347.72;;;29.12;24.06
73453;BME280;61687;56.232;43.854;2023-05-23T10:03:48;101350.50;;;29.31;24.11
73453;BME280;61687;56.232;43.854;2023-05-23T10:06:28;101349.38;;;29.56;23.59
73453;BME280;61687;56.232;43.854;2023-05-23T10:08:58;101348.94;;;29.82;22.78
73453;BME280;61687;56.232;43.854;2023-05-23T10:14:09;101348.50;;;30.08;22.08
73453;BME280;61687;56.232;43.854;2023-05-23T10:19:09;101350.31;;;29.53;23.30
73453;BME280;61687;56.232;43.854;2023-05-23T10:21:43;101345.59;;;29.60;23.75
73453;BME280;61687;56.232;43.854;2023-05-23T10:24:10;101347.59;;;30.75;22.10
73453;BME280;61687;56.232;43.854;2023-05-23T10:26:37;101338.72;;;32.76;20.89
73453;BME280;61687;56.232;43.854;2023-05-23T10:29:06;101342.25;;;34.32;19.31
73453;BME280;61687;56.232;43.854;2023-05-23T10:31:32;101336.47;;;35.49;18.03
73453;BME280;61687;56.232;43.854;2023-05-23T10:34:07;101332.38;;;36.32;17.56
73453;BME280;61687;56.232;43.854;2023-05-23T10:37:06;101335.44;;;37.79;16.60
73453;BME280;61687;56.232;43.854;2023-05-23T10:42:41;101330.22;;;38.47;16.57
73453;BME280;61687;56.232;43.854;2023-05-23T10:45:20;101325.75;;;38.07;15.63
73453;BME280;61687;56.232;43.854;2023-05-23T10:47:47;101327.09;;;36.95;16.16
73453;BME280;61687;56.232;43.854;2023-05-23T10:50:32;101337.28;;;35.38;16.85
73453;BME280;61687;56.232;43.854;2023-05-23T10:53:00;101332.19;;;33.87;16.78
73453;BME280;61687;56.232;43.854;2023-05-23T10:55:31;101344.44;;;33.03;17.29
73453;BME280;61687;56.232;43.854;2023-05-23T10:58:18;101340.47;;;32.26;18.00
73453;BME280;61687;56.232;43.854;2023-05-23T11:00:58;101344.84;;;31.86;18.12
73453;BME280;61687;56.232;43.854;2023-05-23T11:03:36;101335.06;;;31.72;18.18
73453;BME280;61687;56.232;43.854;2023-05-23T11:06:04;101329.13;;;31.70;18.23
73453;BME280;61687;56.232;43.854;2023-05-23T11:08:39;101337.53;;;31.64;20.07
73453;BME280;61687;56.232;43.854;2023-05-23T11:11:07;101339.59;;;31.79;20.19
73453;BME280;61687;56.232;43.854;2023-05-23T11:16:40;101319.03;;;32.67;18.45
73453;BME280;61687;56.232;43.854;2023-05-23T11:22:01;101316.72;;;32.92;19.61
73453;BME280;61687;56.232;43.854;2023-05-23T11:24:50;101311.38;;;32.32;18.91
73453;BME280;61687;56.232;43.854;2023-05-23T11:27:37;101314.94;;;32.06;19.93
73453;BME280;61687;56.232;43.854;2023-05-23T11:30:14;101309.00;;;32.04;20.26
73453;BME280;61687;56.232;43.854;2023-05-23T11:32:49;101309.78;;;31.83;19.55
73453;BME280;61687;56.232;43.854;2023-05-23T11:35:16;101305.88;;;32.02;20.26
73453;BME280;61687;56.232;43.854;2023-05-23T11:37:43;101312.06;;;33.53;18.69
73453;BME280;61687;56.232;43.854;2023-05-23T11:43:05;101293.91;;;36.87;16.24
73453;BME280;61687;56.232;43.854;2023-05-23T11:45:33;101299.34;;;37.96;15.70
73453;BME280;61687;56.232;43.854;2023-05-23T11:48:07;101302.94;;;37.77;15.31
73453;BME280;61687;56.232;43.854;2023-05-23T11:50:36;101298.66;;;37.89;15.58
73453;BME280;61687;56.232;43.854;2023-05-23T11:53:07;101288.13;;;37.78;14.71
73453;BME280;61687;56.232;43.854;2023-05-23T11:55:33;101290.88;;;39.13;14.04
73453;BME280;61687;56.232;43.854;2023-05-23T11:57:59;101285.53;;;40.73;13.51
73453;BME280;61687;56.232;43.854;2023-05-23T12:00:25;101283.81;;;41.78;12.83
73453;BME280;61687;56.232;43.854;2023-05-23T12:02:51;101270.47;;;42.80;12.70
73453;BME280;61687;56.232;43.854;2023-05-23T12:05:17;101269.84;;;43.36;11.51
73453;BME280;61687;56.232;43.854;2023-05-23T12:07:47;101264.38;;;44.04;11.91
73453;BME280;61687;56.232;43.854;2023-05-23T12:10:15;101270.97;;;43.97;11.60
73453;BME280;61687;56.232;43.854;2023-05-23T12:12:46;101265.38;;;43.50;12.33
73453;BME280;61687;56.232;43.854;2023-05-23T12:15:13;101263.88;;;43.33;12.41
73453;BME280;61687;56.232;43.854;2023-05-23T12:17:44;101259.09;;;42.58;13.12
73453;BME280;61687;56.232;43.854;2023-05-23T12:20:14;101257.88;;;42.23;12.94
73453;BME280;61687;56.232;43.854;2023-05-23T12:22:41;101267.91;;;41.85;12.68
73453;BME280;61687;56.232;43.854;2023-05-23T12:25:08;101256.31;;;42.14;12.43
73453;BME280;61687;56.232;43.854;2023-05-23T12:27:35;101261.50;;;42.15;11.73
73453;BME280;61687;56.232;43.854;2023-05-23T12:30:06;101255.06;;;42.54;13.17
73453;BME280;61687;56.232;43.854;2023-05-23T12:32:44;101247.72;;;43.38;11.25
73453;BME280;61687;56.232;43.854;2023-05-23T12:35:12;101248.59;;;43.64;11.92
73453;BME280;61687;56.232;43.854;2023-05-23T12:37:43;101244.88;;;43.79;11.65
73453;BME280;61687;56.232;43.854;2023-05-23T12:40:16;101244.94;;;44.12;11.42
73453;BME280;61687;56.232;43.854;2023-05-23T12:42:55;101237.09;;;43.97;11.88
73453;BME280;61687;56.232;43.854;2023-05-23T12:45:22;101243.03;;;43.58;11.29
73453;BME280;61687;56.232;43.854;2023-05-23T12:47:49;101242.53;;;43.37;11.75
73453;BME280;61687;56.232;43.854;2023-05-23T12:50:15;101237.59;;;42.83;11.87
73453;BME280;61687;56.232;43.854;2023-05-23T12:52:41;101237.13;;;41.06;12.92
73453;BME280;61687;56.232;43.854;2023-05-23T12:55:08;101234.88;;;38.98;14.25
73453;BME280;61687;56.232;43.854;2023-05-23T12:57:34;101233.16;;;37.86;14.97
73453;BME280;61687;56.232;43.854;2023-05-23T13:00:01;101226.56;;;37.22;15.78
73453;BME280;61687;56.232;43.854;2023-05-23T13:02:34;101240.44;;;36.03;16.08
73453;BME280;61687;56.232;43.854;2023-05-23T13:05:00;101225.31;;;36.62;15.51
73453;BME280;61687;56.232;43.854;2023-05-23T13:07:26;101225.16;;;37.59;14.48
73453;BME280;61687;56.232;43.854;2023-05-23T13:09:52;101226.94;;;38.39;15.07